sensor_id;sensor_type;location;lat;lon;timestamp;pressure;altitude;pressure_sealevel;temperature;humidity
29433;BME280;16405;53.964;13.448;2023-05-02T00:02:14;100867.78;;;7.24;75.87
29433;BME280;16405;53.964;13.448;2023-05-02T00:04:40;100871.63;;;7.12;76.43
29433;BME280;16405;53.964;13.448;2023-05-02T00:07:06;100870.91;;;7.07;77.61
29433;BME280;16405;53.964;13.448;2023-05-02T00:09:31;100876.88;;;7.12;77.95
29433;BME280;16405;53.964;13.448;2023-05-02T00:11:57;100874.84;;;7.22;78.52
29433;BME280;16405;53.964;13.448;2023-05-02T00:14:23;100874.41;;;7.36;77.71
29433;BME280;16405;53.964;13.448;2023-05-02T00:16:49;100875.03;;;7.44;77.29
29433;BME280;16405;53.964;13.448;2023-05-02T00:19:15;100873.03;;;7.52;76.74
29433;BME280;16405;53.964;13.448;2023-05-02T00:21:41;100880.78;;;7.55;76.61
29433;BME280;16405;53.964;13.448;2023-05-02T00:24:06;100880.75;;;7.57;75.73
29433;BME280;16405;53.964;13.448;2023-05-02T00:26:32;100880.91;;;7.52;75.64
29433;BME280;16405;53.964;13.448;2023-05-02T00:28:58;100881.84;;;7.50;75.53
29433;BME280;16405;53.964;13.448;2023-05-02T00:31:25;100877.63;;;7.46;75.05
29433;BME280;16405;53.964;13.448;2023-05-02T00:33:51;100876.81;;;7.44;75.54
29433;BME280;16405;53.964;13.448;2023-05-02T00:36:18;100875.22;;;7.38;75.63
29433;BME280;16405;53.964;13.448;2023-05-02T00:38:44;100872.72;;;7.35;75.72
29433;BME280;16405;53.964;13.448;2023-05-02T00:41:11;100870.16;;;7.32;75.79
29433;BME280;16405;53.964;13.448;2023-05-02T00:43:37;100875.63;;;7.26;76.13
29433;BME280;16405;53.964;13.448;2023-05-02T00:46:05;100873.09;;;7.21;76.26
29433;BME280;16405;53.964;13.448;2023-05-02T00:48:32;100876.50;;;7.25;76.77
29433;BME280;16405;53.964;13.448;2023-05-02T00:51:04;100879.22;;;7.22;77.29
29433;BME280;16405;53.964;13.448;2023-05-02T00:53:31;100885.38;;;7.19;77.17
29433;BME280;16405;53.964;13.448;2023-05-02T00:55:58;100880.22;;;7.17;77.48
29433;BME280;16405;53.964;13.448;2023-05-02T00:58:24;100882.06;;;7.14;77.67
29433;BME280;16405;53.964;13.448;2023-05-02T01:04:03;100869.31;;;7.02;77.87
29433;BME280;16405;53.964;13.448;2023-05-02T01:10:07;100881.16;;;6.85;79.18
29433;BME280;16405;53.964;13.448;2023-05-02T01:12:41;100878.03;;;6.72;79.33
29433;BME280;16405;53.964;13.448;2023-05-02T01:15:14;100883.41;;;6.68;79.21
29433;BME280;16405;53.964;13.448;2023-05-02T01:17:41;100875.72;;;6.62;79.56
29433;BME280;16405;53.964;13.448;2023-05-02T01:20:13;100881.84;;;6.61;79.87
29433;BME280;16405;53.964;13.448;2023-05-02T01:22:40;100876.50;;;6.65;80.09
29433;BME280;16405;53.964;13.448;2023-05-02T01:30:18;100885.06;;;6.70;80.05
29433;BME280;16405;53.964;13.448;2023-05-02T01:32:46;100882.50;;;6.69;80.24
29433;BME280;16405;53.964;13.448;2023-05-02T01:35:16;100877.34;;;6.66;79.92
29433;BME280;16405;53.964;13.448;2023-05-02T01:37:44;100881.84;;;6.61;80.42
29433;BME280;16405;53.964;13.448;2023-05-02T01:40:16;100882.78;;;6.58;81.59
29433;BME280;16405;53.964;13.448;2023-05-02T01:42:42;100881.94;;;6.57;83.10
29433;BME280;16405;53.964;13.448;2023-05-02T01:45:11;100895.06;;;6.56;83.88
29433;BME280;16405;53.964;13.448;2023-05-02T01:47:39;100893.34;;;6.55;84.37
29433;BME280;16405;53.964;13.448;2023-05-02T01:50:10;100891.63;;;6.54;84.56
29433;BME280;16405;53.964;13.448;2023-05-02T01:52:40;100896.91;;;6.52;84.73
29433;BME280;16405;53.964;13.448;2023-05-02T01:55:10;100891.75;;;6.49;84.08
29433;BME280;16405;53.964;13.448;2023-05-02T01:57:40;100887.47;;;6.47;83.52
29433;BME280;16405;53.964;13.448;2023-05-02T02:00:07;100893.59;;;6.46;83.22
29433;BME280;16405;53.964;13.448;2023-05-02T02:02:35;100898.88;;;6.44;83.44
29433;BME280;16405;53.964;13.448;2023-05-02T02:05:04;100901.47;;;6.44;82.61
29433;BME280;16405;53.964;13.448;2023-05-02T02:07:30;100903.16;;;6.47;82.68
29433;BME280;16405;53.964;13.448;2023-05-02T02:09:56;100906.50;;;6.52;83.07
29433;BME280;16405;53.964;13.448;2023-05-02T02:12:42;100907.28;;;6.55;82.85
29433;BME280;16405;53.964;13.448;2023-05-02T02:15:27;100905.63;;;6.53;82.53
29433;BME280;16405;53.964;13.448;2023-05-02T02:17:57;100902.09;;;6.54;82.68
29433;BME280;16405;53.964;13.448;2023-05-02T02:20:29;100911.66;;;6.55;82.87
29433;BME280;16405;53.964;13.448;2023-05-02T02:22:59;100911.59;;;6.56;82.94
29433;BME280;16405;53.964;13.448;2023-05-02T02:25:26;100921.16;;;6.59;83.23
29433;BME280;16405;53.964;13.448;2023-05-02T02:27:52;100929.03;;;6.57;83.27
29433;BME280;16405;53.964;13.448;2023-05-02T02:30:18;100929.16;;;6.53;83.53
29433;BME280;16405;53.964;13.448;2023-05-02T02:32:44;100936.09;;;6.54;82.90
29433;BME280;16405;53.964;13.448;2023-05-02T02:35:10;100931.94;;;6.47;83.39
29433;BME280;16405;53.964;13.448;2023-05-02T02:38:09;100929.22;;;6.50;83.58
29433;BME280;16405;53.964;13.448;2023-05-02T02:40:54;100929.19;;;6.51;83.62
29433;BME280;16405;53.964;13.448;2023-05-02T02:43:37;100930.91;;;6.52;84.16
29433;BME280;16405;53.964;13.448;2023-05-02T02:51:50;100940.03;;;6.38;85.99
29433;BME280;16405;53.964;13.448;2023-05-02T02:54:46;100941.03;;;6.32;86.39
29433;BME280;16405;53.964;13.448;2023-05-02T02:57:36;100947.16;;;6.31;86.91
29433;BME280;16405;53.964;13.448;2023-05-02T03:00:14;100949.66;;;6.35;87.57
29433;BME280;16405;53.964;13.448;2023-05-02T03:02:41;100953.09;;;6.38;88.39
29433;BME280;16405;53.964;13.448;2023-05-02T03:05:09;100960.78;;;6.44;88.80
29433;BME280;16405;53.964;13.448;2023-05-02T03:07:35;100956.31;;;6.47;88.58
29433;BME280;16405;53.964;13.448;2023-05-02T03:10:05;100958.81;;;6.52;88.70
29433;BME280;16405;53.964;13.448;2023-05-02T03:12:31;100956.13;;;6.55;88.72
29433;BME280;16405;53.964;13.448;2023-05-02T03:17:49;100957.69;;;6.62;89.03
29433;BME280;16405;53.964;13.448;2023-05-02T03:20:15;100961.03;;;6.67;89.28
29433;BME280;16405;53.964;13.448;2023-05-02T03:22:41;100960.03;;;6.71;90.24
29433;BME280;16405;53.964;13.448;2023-05-02T03:25:07;100966.09;;;6.73;91.25
29433;BME280;16405;53.964;13.448;2023-05-02T03:27:33;100965.91;;;6.81;92.59
29433;BME280;16405;53.964;13.448;2023-05-02T03:29:59;100971.81;;;6.88;93.02
29433;BME280;16405;53.964;13.448;2023-05-02T03:32:25;100984.72;;;6.95;92.92
29433;BME280;16405;53.964;13.448;2023-05-02T03:34:51;100986.47;;;6.95;92.74
29433;BME280;16405;53.964;13.448;2023-05-02T03:37:23;100994.31;;;6.95;92.74
29433;BME280;16405;53.964;13.448;2023-05-02T03:39:49;101004.88;;;6.92;92.29
29433;BME280;16405;53.964;13.448;2023-05-02T03:42:16;101000.50;;;6.92;91.85
29433;BME280;16405;53.964;13.448;2023-05-02T03:44:42;101013.72;;;6.88;92.21
29433;BME280;16405;53.964;13.448;2023-05-02T03:47:07;101012.06;;;6.84;92.14
29433;BME280;16405;53.964;13.448;2023-05-02T03:49:34;101014.00;;;6.77;93.20
29433;BME280;16405;53.964;13.448;2023-05-02T03:52:00;101025.41;;;6.74;94.43
29433;BME280;16405;53.964;13.448;2023-05-02T03:54:26;101032.28;;;6.78;96.49
29433;BME280;16405;53.964;13.448;2023-05-02T03:56:55;101030.41;;;6.84;97.62
29433;BME280;16405;53.964;13.448;2023-05-02T03:59:21;101039.63;;;6.97;98.83
29433;BME280;16405;53.964;13.448;2023-05-02T04:01:49;101042.81;;;7.08;99.86
29433;BME280;16405;53.964;13.448;2023-05-02T04:04:15;101038.09;;;7.21;100.00
29433;BME280;16405;53.964;13.448;2023-05-02T04:06:41;101046.56;;;7.32;100.00
29433;BME280;16405;53.964;13.448;2023-05-02T04:09:07;101033.09;;;7.45;100.00
29433;BME280;16405;53.964;13.448;2023-05-02T04:11:33;101040.09;;;7.74;100.00
29433;BME280;16405;53.964;13.448;2023-05-02T04:13:59;101039.53;;;8.20;98.38
29433;BME280;16405;53.964;13.448;2023-05-02T04:16:25;101054.28;;;8.79;95.30
29433;BME280;16405;53.964;13.448;2023-05-02T04:18:51;101058.63;;;9.54;91.24
29433;BME280;16405;53.964;13.448;2023-05-02T04:21:17;101064.28;;;10.36;87.02
29433;BME280;16405;53.964;13.448;2023-05-02T04:23:43;101083.25;;;11.07;82.56
29433;BME280;16405;53.964;13.448;2023-05-02T04:26:09;101087.84;;;11.83;78.99
29433;BME280;16405;53.964;13.448;2023-05-02T04:28:35;101082.94;;;12.49;75.72
29433;BME280;16405;53.964;13.448;2023-05-02T04:31:01;101087.19;;;12.71;74.18
29433;BME280;16405;53.964;13.448;2023-05-02T04:33:28;101093.19;;;13.09;72.21
29433;BME280;16405;53.964;13.448;2023-05-02T04:35:55;101088.41;;;12.46;72.61
29433;BME280;16405;53.964;13.448;2023-05-02T04:38:21;101084.28;;;12.03;73.77
29433;BME280;16405;53.964;13.448;2023-05-02T04:40:49;101091.19;;;11.67;73.68
29433;BME280;16405;53.964;13.448;2023-05-02T04:43:16;101080.69;;;11.26;75.08
29433;BME280;16405;53.964;13.448;2023-05-02T04:45:42;101086.50;;;10.94;76.19
29433;BME280;16405;53.964;13.448;2023-05-02T04:48:08;101084.03;;;10.68;77.42
29433;BME280;16405;53.964;13.448;2023-05-02T04:50:34;101087.41;;;10.50;78.89
29433;BME280;16405;53.964;13.448;2023-05-02T04:53:00;101085.47;;;10.33;80.08
29433;BME280;16405;53.964;13.448;2023-05-02T04:55:26;101085.81;;;10.24;80.73
29433;BME280;16405;53.964;13.448;2023-05-02T04:57:51;101083.31;;;10.19;81.67
29433;BME280;16405;53.964;13.448;2023-05-02T05:00:17;101089.47;;;10.20;82.35
29433;BME280;16405;53.964;13.448;2023-05-02T05:02:43;101092.19;;;10.17;82.98
29433;BME280;16405;53.964;13.448;2023-05-02T05:05:09;101088.66;;;10.18;83.51
29433;BME280;16405;53.964;13.448;2023-05-02T05:07:35;101095.63;;;10.19;83.71
29433;BME280;16405;53.964;13.448;2023-05-02T05:10:01;101097.22;;;10.23;83.88
29433;BME280;16405;53.964;13.448;2023-05-02T05:12:26;101098.88;;;10.25;83.41
29433;BME280;16405;53.964;13.448;2023-05-02T05:14:52;101111.97;;;10.27;83.85
29433;BME280;16405;53.964;13.448;2023-05-02T05:17:18;101112.84;;;10.27;84.21
29433;BME280;16405;53.964;13.448;2023-05-02T05:19:44;101114.66;;;10.25;84.41
29433;BME280;16405;53.964;13.448;2023-05-02T05:22:09;101112.16;;;10.22;83.74
29433;BME280;16405;53.964;13.448;2023-05-02T05:24:36;101120.16;;;10.19;84.33
29433;BME280;16405;53.964;13.448;2023-05-02T05:27:03;101126.50;;;10.15;84.69
29433;BME280;16405;53.964;13.448;2023-05-02T05:29:30;101125.69;;;10.13;85.12
29433;BME280;16405;53.964;13.448;2023-05-02T05:31:57;101131.81;;;10.14;85.17
29433;BME280;16405;53.964;13.448;2023-05-02T05:34:23;101130.16;;;10.11;85.87
29433;BME280;16405;53.964;13.448;2023-05-02T05:36:49;101142.34;;;10.14;86.05
29433;BME280;16405;53.964;13.448;2023-05-02T05:39:15;101139.53;;;10.18;86.71
29433;BME280;16405;53.964;13.448;2023-05-02T05:41:41;101141.22;;;10.19;86.40
29433;BME280;16405;53.964;13.448;2023-05-02T05:44:07;101142.16;;;10.18;87.46
29433;BME280;16405;53.964;13.448;2023-05-02T05:46:33;101152.69;;;10.18;87.37
29433;BME280;16405;53.964;13.448;2023-05-02T05:48:59;101157.88;;;10.20;87.30
29433;BME280;16405;53.964;13.448;2023-05-02T05:51:26;101162.22;;;10.21;87.85
29433;BME280;16405;53.964;13.448;2023-05-02T05:53:53;101162.53;;;10.13;88.41
29433;BME280;16405;53.964;13.448;2023-05-02T05:56:18;101167.97;;;10.09;89.37
29433;BME280;16405;53.964;13.448;2023-05-02T05:58:44;101165.66;;;9.99;91.07
29433;BME280;16405;53.964;13.448;2023-05-02T06:01:10;101175.56;;;9.93;92.36
29433;BME280;16405;53.964;13.448;2023-05-02T06:03:36;101176.66;;;9.87;93.71
29433;BME280;16405;53.964;13.448;2023-05-02T06:06:03;101185.88;;;9.74;95.53
29433;BME280;16405;53.964;13.448;2023-05-02T06:08:29;101186.53;;;9.55;98.30
29433;BME280;16405;53.964;13.448;2023-05-02T06:10:54;101190.59;;;9.39;100.00
29433;BME280;16405;53.964;13.448;2023-05-02T06:13:20;101190.75;;;9.34;100.00
29433;BME280;16405;53.964;13.448;2023-05-02T06:15:46;101205.06;;;9.26;100.00
29433;BME280;16405;53.964;13.448;2023-05-02T06:18:13;101214.81;;;9.22;100.00
29433;BME280;16405;53.964;13.448;2023-05-02T06:20:39;101222.19;;;9.11;100.00
29433;BME280;16405;53.964;13.448;2023-05-02T06:23:05;101227.09;;;8.95;100.00
29433;BME280;16405;53.964;13.448;2023-05-02T06:25:30;101233.69;;;8.80;100.00
29433;BME280;16405;53.964;13.448;2023-05-02T06:27:58;101234.56;;;8.79;100.00
29433;BME280;16405;53.964;13.448;2023-05-02T06:30:24;101246.84;;;8.78;100.00
29433;BME280;16405;53.964;13.448;2023-05-02T06:32:50;101246.38;;;8.94;100.00
29433;BME280;16405;53.964;13.448;2023-05-02T06:35:15;101251.94;;;9.11;100.00
29433;BME280;16405;53.964;13.448;2023-05-02T06:37:44;101252.97;;;9.07;100.00
29433;BME280;16405;53.964;13.448;2023-05-02T06:40:10;101259.56;;;9.20;100.00
29433;BME280;16405;53.964;13.448;2023-05-02T06:42:36;101267.63;;;9.41;99.67
29433;BME280;16405;53.964;13.448;2023-05-02T06:45:02;101273.53;;;9.74;97.59
29433;BME280;16405;53.964;13.448;2023-05-02T06:47:28;101286.97;;;9.65;95.38
29433;BME280;16405;53.964;13.448;2023-05-02T06:49:55;101294.22;;;9.85;93.42
29433;BME280;16405;53.964;13.448;2023-05-02T06:52:20;101292.22;;;9.92;91.87
29433;BME280;16405;53.964;13.448;2023-05-02T06:54:46;101294.91;;;9.90;91.02
29433;BME280;16405;53.964;13.448;2023-05-02T06:57:12;101303.19;;;9.78;90.05
29433;BME280;16405;53.964;13.448;2023-05-02T06:59:38;101296.34;;;9.47;89.69
29433;BME280;16405;53.964;13.448;2023-05-02T07:02:04;101315.06;;;9.38;89.94
29433;BME280;16405;53.964;13.448;2023-05-02T07:04:31;101313.63;;;9.28;87.81
29433;BME280;16405;53.964;13.448;2023-05-02T07:06:56;101342.31;;;11.09;84.30
29433;BME280;16405;53.964;13.448;2023-05-02T07:09:22;101359.53;;;14.31;73.50
29433;BME280;16405;53.964;13.448;2023-05-02T07:11:48;101364.72;;;14.50;66.36
29433;BME280;16405;53.964;13.448;2023-05-02T07:14:14;101354.13;;;13.07;65.63
29433;BME280;16405;53.964;13.448;2023-05-02T07:16:40;101350.34;;;12.15;66.84
29433;BME280;16405;53.964;13.448;2023-05-02T07:19:06;101356.97;;;11.40;70.62
29433;BME280;16405;53.964;13.448;2023-05-02T07:21:32;101350.56;;;10.78;72.59
29433;BME280;16405;53.964;13.448;2023-05-02T07:23:58;101357.06;;;10.68;73.71
29433;BME280;16405;53.964;13.448;2023-05-02T07:26:24;101352.31;;;10.54;75.18
29433;BME280;16405;53.964;13.448;2023-05-02T07:28:52;101362.94;;;10.01;75.65
29433;BME280;16405;53.964;13.448;2023-05-02T07:31:17;101364.78;;;9.97;77.16
29433;BME280;16405;53.964;13.448;2023-05-02T07:33:43;101378.06;;;10.46;76.82
29433;BME280;16405;53.964;13.448;2023-05-02T07:36:09;101378.91;;;10.46;75.10
29433;BME280;16405;53.964;13.448;2023-05-02T07:38:35;101377.44;;;10.13;73.64
29433;BME280;16405;53.964;13.448;2023-05-02T07:41:00;101408.03;;;12.24;68.68
29433;BME280;16405;53.964;13.448;2023-05-02T07:43:26;101417.53;;;13.83;62.04
29433;BME280;16405;53.964;13.448;2023-05-02T07:45:52;101437.34;;;14.96;60.47
29433;BME280;16405;53.964;13.448;2023-05-02T07:48:18;101436.50;;;14.63;60.59
29433;BME280;16405;53.964;13.448;2023-05-02T07:50:45;101442.19;;;14.55;59.70
29433;BME280;16405;53.964;13.448;2023-05-02T07:53:11;101429.66;;;13.13;60.58
29433;BME280;16405;53.964;13.448;2023-05-02T07:55:36;101423.03;;;12.44;62.93
29433;BME280;16405;53.964;13.448;2023-05-02T07:58:02;101412.44;;;11.59;64.82
29433;BME280;16405;53.964;13.448;2023-05-02T08:00:28;101425.19;;;11.70;65.30
29433;BME280;16405;53.964;13.448;2023-05-02T08:02:55;101433.13;;;12.14;65.01
29433;BME280;16405;53.964;13.448;2023-05-02T08:05:21;101452.53;;;13.14;62.80
29433;BME280;16405;53.964;13.448;2023-05-02T08:07:47;101466.19;;;14.34;57.94
29433;BME280;16405;53.964;13.448;2023-05-02T08:10:13;101481.22;;;15.35;55.76
29433;BME280;16405;53.964;13.448;2023-05-02T08:12:40;101500.59;;;16.17;53.41
29433;BME280;16405;53.964;13.448;2023-05-02T08:15:11;101485.78;;;14.67;54.94
29433;BME280;16405;53.964;13.448;2023-05-02T08:17:38;101489.75;;;14.58;55.31
29433;BME280;16405;53.964;13.448;2023-05-02T08:20:04;101508.44;;;15.23;54.11
29433;BME280;16405;53.964;13.448;2023-05-02T08:22:30;101524.63;;;15.84;53.09
29433;BME280;16405;53.964;13.448;2023-05-02T08:24:56;101548.72;;;16.73;50.89
29433;BME280;16405;53.964;13.448;2023-05-02T08:27:22;101554.47;;;16.51;49.28
29433;BME280;16405;53.964;13.448;2023-05-02T08:29:48;101556.00;;;16.55;50.50
29433;BME280;16405;53.964;13.448;2023-05-02T08:32:16;101543.09;;;15.53;51.48
29433;BME280;16405;53.964;13.448;2023-05-02T08:34:42;101550.56;;;14.79;52.31
29433;BME280;16405;53.964;13.448;2023-05-02T08:37:08;101540.59;;;13.74;53.52
29433;BME280;16405;53.964;13.448;2023-05-02T08:39:34;101553.66;;;14.15;53.53
29433;BME280;16405;53.964;13.448;2023-05-02T08:42:00;101556.69;;;14.62;51.69
29433;BME280;16405;53.964;13.448;2023-05-02T08:44:26;101566.44;;;15.13;51.57
29433;BME280;16405;53.964;13.448;2023-05-02T08:46:53;101566.94;;;14.69;53.90
29433;BME280;16405;53.964;13.448;2023-05-02T08:49:20;101561.84;;;13.92;54.38
29433;BME280;16405;53.964;13.448;2023-05-02T08:51:48;101570.16;;;13.65;54.67
29433;BME280;16405;53.964;13.448;2023-05-02T08:54:16;101574.50;;;13.85;55.06
29433;BME280;16405;53.964;13.448;2023-05-02T08:56:42;101586.22;;;13.80;53.76
29433;BME280;16405;53.964;13.448;2023-05-02T08:59:08;101572.19;;;13.40;55.29
29433;BME280;16405;53.964;13.448;2023-05-02T09:01:38;101576.16;;;13.29;56.81
29433;BME280;16405;53.964;13.448;2023-05-02T09:04:06;101582.63;;;13.02;56.89
29433;BME280;16405;53.964;13.448;2023-05-02T09:06:32;101593.53;;;12.51;56.84
29433;BME280;16405;53.964;13.448;2023-05-02T09:09:00;101590.75;;;12.77;58.05
29433;BME280;16405;53.964;13.448;2023-05-02T09:11:27;101613.41;;;13.64;58.44
29433;BME280;16405;53.964;13.448;2023-05-02T09:13:54;101610.38;;;13.53;55.43
29433;BME280;16405;53.964;13.448;2023-05-02T09:16:23;101615.50;;;13.37;56.44
29433;BME280;16405;53.964;13.448;2023-05-02T09:18:51;101605.72;;;12.56;55.60
29433;BME280;16405;53.964;13.448;2023-05-02T09:21:22;101605.34;;;12.21;56.53
29433;BME280;16405;53.964;13.448;2023-05-02T09:23:55;101611.19;;;12.29;57.25
29433;BME280;16405;53.964;13.448;2023-05-02T09:26:28;101617.75;;;12.41;56.05
29433;BME280;16405;53.964;13.448;2023-05-02T09:29:05;101623.06;;;12.83;57.15
29433;BME280;16405;53.964;13.448;2023-05-02T09:31:34;101620.78;;;12.96;56.94
29433;BME280;16405;53.964;13.448;2023-05-02T09:34:09;101625.91;;;12.57;57.62
29433;BME280;16405;53.964;13.448;2023-05-02T09:36:43;101639.25;;;12.54;58.56
29433;BME280;16405;53.964;13.448;2023-05-02T09:39:15;101634.16;;;12.27;58.63
29433;BME280;16405;53.964;13.448;2023-05-02T09:41:46;101632.94;;;11.90;59.29
29433;BME280;16405;53.964;13.448;2023-05-02T09:44:18;101635.81;;;12.29;60.89
29433;BME280;16405;53.964;13.448;2023-05-02T09:46:49;101640.69;;;11.44;60.04
29433;BME280;16405;53.964;13.448;2023-05-02T09:49:16;101638.34;;;11.37;62.29
29433;BME280;16405;53.964;13.448;2023-05-02T09:51:49;101639.50;;;11.53;61.32
29433;BME280;16405;53.964;13.448;2023-05-02T09:54:35;101649.50;;;11.94;60.06
29433;BME280;16405;53.964;13.448;2023-05-02T09:57:02;101645.06;;;11.94;59.32
29433;BME280;16405;53.964;13.448;2023-05-02T09:59:28;101645.56;;;11.80;59.81
29433;BME280;16405;53.964;13.448;2023-05-02T10:02:10;101650.47;;;11.66;59.29
29433;BME280;16405;53.964;13.448;2023-05-02T10:04:38;101649.09;;;11.31;59.81
29433;BME280;16405;53.964;13.448;2023-05-02T10:07:05;101653.75;;;11.49;59.94
29433;BME280;16405;53.964;13.448;2023-05-02T10:09:35;101661.44;;;12.04;59.44
29433;BME280;16405;53.964;13.448;2023-05-02T10:12:03;101677.91;;;12.10;56.97
29433;BME280;16405;53.964;13.448;2023-05-02T10:14:40;101692.03;;;12.55;57.96
29433;BME280;16405;53.964;13.448;2023-05-02T10:17:21;101699.78;;;12.82;57.46
29433;BME280;16405;53.964;13.448;2023-05-02T10:19:56;101700.47;;;12.41;55.82
29433;BME280;16405;53.964;13.448;2023-05-02T10:22:22;101702.09;;;12.45;57.02
29433;BME280;16405;53.964;13.448;2023-05-02T10:24:56;101696.75;;;12.47;57.93
29433;BME280;16405;53.964;13.448;2023-05-02T10:27:28;101694.66;;;11.84;57.73
29433;BME280;16405;53.964;13.448;2023-05-02T10:29:59;101695.44;;;11.63;57.47
29433;BME280;16405;53.964;13.448;2023-05-02T10:32:32;101697.00;;;11.68;59.51
29433;BME280;16405;53.964;13.448;2023-05-02T10:35:05;101706.41;;;11.50;60.01
29433;BME280;16405;53.964;13.448;2023-05-02T10:37:37;101708.16;;;11.52;58.91
29433;BME280;16405;53.964;13.448;2023-05-02T10:40:11;101705.41;;;11.80;60.03
29433;BME280;16405;53.964;13.448;2023-05-02T10:42:46;101712.63;;;11.49;59.54
29433;BME280;16405;53.964;13.448;2023-05-02T10:45:41;101716.28;;;10.92;58.64
29433;BME280;16405;53.964;13.448;2023-05-02T10:48:28;101716.84;;;11.79;60.33
29433;BME280;16405;53.964;13.448;2023-05-02T10:50:58;101732.50;;;12.56;58.83
29433;BME280;16405;53.964;13.448;2023-05-02T10:53:37;101742.28;;;12.76;56.30
29433;BME280;16405;53.964;13.448;2023-05-02T10:56:17;101735.28;;;12.97;55.17
29433;BME280;16405;53.964;13.448;2023-05-02T10:58:48;101739.78;;;12.95;55.03
29433;BME280;16405;53.964;13.448;2023-05-02T11:01:32;101737.56;;;13.06;54.55
29433;BME280;16405;53.964;13.448;2023-05-02T11:04:04;101731.66;;;12.55;54.38
29433;BME280;16405;53.964;13.448;2023-05-02T11:06:36;101732.84;;;11.74;55.40
29433;BME280;16405;53.964;13.448;2023-05-02T11:11:53;101744.06;;;12.53;54.75
29433;BME280;16405;53.964;13.448;2023-05-02T11:19:28;101788.44;;;14.75;53.56
29433;BME280;16405;53.964;13.448;2023-05-02T11:24:53;101803.19;;;15.36;51.95
29433;BME280;16405;53.964;13.448;2023-05-02T11:35:20;101792.22;;;14.50;49.90
29433;BME280;16405;53.964;13.448;2023-05-02T11:38:01;101806.22;;;14.73;50.39
29433;BME280;16405;53.964;13.448;2023-05-02T11:40:31;101805.72;;;15.20;50.92
29433;BME280;16405;53.964;13.448;2023-05-02T11:42:59;101814.84;;;15.51;50.62
29433;BME280;16405;53.964;13.448;2023-05-02T11:45:33;101810.03;;;14.86;49.51
29433;BME280;16405;53.964;13.448;2023-05-02T11:48:05;101804.88;;;13.84;49.58
29433;BME280;16405;53.964;13.448;2023-05-02T11:50:51;101793.53;;;13.39;51.31
29433;BME280;16405;53.964;13.448;2023-05-02T11:53:21;101792.59;;;13.83;52.04
29433;BME280;16405;53.964;13.448;2023-05-02T11:55:53;101810.06;;;13.87;51.40
29433;BME280;16405;53.964;13.448;2023-05-02T11:58:22;101802.63;;;13.95;51.97
29433;BME280;16405;53.964;13.448;2023-05-02T12:00:50;101797.75;;;13.21;50.45
29433;BME280;16405;53.964;13.448;2023-05-02T12:03:27;101793.41;;;13.20;51.26
29433;BME280;16405;53.964;13.448;2023-05-02T12:05:54;101805.09;;;13.37;50.86
29433;BME280;16405;53.964;13.448;2023-05-02T12:08:29;101804.56;;;13.28;51.89
29433;BME280;16405;53.964;13.448;2023-05-02T12:10:56;101816.66;;;13.34;51.62
29433;BME280;16405;53.964;13.448;2023-05-02T12:13:23;101812.53;;;13.05;52.80
29433;BME280;16405;53.964;13.448;2023-05-02T12:15:52;101816.69;;;12.88;52.81
29433;BME280;16405;53.964;13.448;2023-05-02T12:18:22;101819.06;;;12.72;52.49
29433;BME280;16405;53.964;13.448;2023-05-02T12:20:50;101817.50;;;12.43;53.26
29433;BME280;16405;53.964;13.448;2023-05-02T12:23:20;101821.31;;;12.11;53.47
29433;BME280;16405;53.964;13.448;2023-05-02T12:25:47;101814.03;;;11.66;54.47
29433;BME280;16405;53.964;13.448;2023-05-02T12:28:15;101819.47;;;11.61;54.97
29433;BME280;16405;53.964;13.448;2023-05-02T12:30:42;101827.31;;;12.16;56.41
29433;BME280;16405;53.964;13.448;2023-05-02T12:33:07;101832.19;;;12.74;53.96
29433;BME280;16405;53.964;13.448;2023-05-02T12:35:35;101832.50;;;13.12;53.32
29433;BME280;16405;53.964;13.448;2023-05-02T12:38:27;101833.63;;;12.83;53.71
29433;BME280;16405;53.964;13.448;2023-05-02T12:40:54;101841.56;;;12.83;53.18
29433;BME280;16405;53.964;13.448;2023-05-02T12:43:22;101845.09;;;13.29;54.34
29433;BME280;16405;53.964;13.448;2023-05-02T12:45:49;101843.09;;;13.12;50.14
29433;BME280;16405;53.964;13.448;2023-05-02T12:48:26;101857.66;;;13.46;50.41
29433;BME280;16405;53.964;13.448;2023-05-02T12:50:53;101857.47;;;13.71;49.36
29433;BME280;16405;53.964;13.448;2023-05-02T12:53:40;101858.31;;;13.51;48.91
29433;BME280;16405;53.964;13.448;2023-05-02T12:56:08;101853.03;;;13.29;49.20
29433;BME280;16405;53.964;13.448;2023-05-02T12:58:42;101847.53;;;12.41;51.53
29433;BME280;16405;53.964;13.448;2023-05-02T13:01:08;101847.03;;;12.06;53.21
29433;BME280;16405;53.964;13.448;2023-05-02T13:03:35;101858.16;;;11.89;53.56
29433;BME280;16405;53.964;13.448;2023-05-02T13:06:01;101857.09;;;12.20;53.81
29433;BME280;16405;53.964;13.448;2023-05-02T13:08:27;101853.28;;;12.03;52.67
29433;BME280;16405;53.964;13.448;2023-05-02T13:10:53;101860.31;;;11.76;52.58
29433;BME280;16405;53.964;13.448;2023-05-02T13:13:18;101845.69;;;11.39;54.04
29433;BME280;16405;53.964;13.448;2023-05-02T13:15:44;101854.97;;;11.51;55.36
29433;BME280;16405;53.964;13.448;2023-05-02T13:18:10;101873.50;;;12.03;55.71
29433;BME280;16405;53.964;13.448;2023-05-02T13:20:36;101880.56;;;12.29;55.37
29433;BME280;16405;53.964;13.448;2023-05-02T13:23:02;101881.16;;;12.84;54.95
29433;BME280;16405;53.964;13.448;2023-05-02T13:25:28;101887.50;;;13.02;52.23
29433;BME280;16405;53.964;13.448;2023-05-02T13:27:53;101874.97;;;12.62;51.35
29433;BME280;16405;53.964;13.448;2023-05-02T13:30:19;101888.59;;;12.49;50.95